sensor_id;sensor_type;location;lat;lon;timestamp;P1;durP1;ratioP1;P2;durP2;ratioP2
48203;SDS011;33994;50.998;5.864;2022-07-29T00:01:42;8.88;;;2.00;;
48203;SDS011;33994;50.998;5.864;2022-07-29T00:04:47;4.25;;;1.60;;
48203;SDS011;33994;50.998;5.864;2022-07-29T00:07:51;4.65;;;1.35;;
48203;SDS011;33994;50.998;5.864;2022-07-29T00:10:56;9.10;;;1.75;;
48203;SDS011;33994;50.998;5.864;2022-07-29T00:14:00;6.25;;;1.70;;
48203;SDS011;33994;50.998;5.864;2022-07-29T00:17:04;6.30;;;1.45;;
48203;SDS011;33994;50.998;5.864;2022-07-29T00:20:09;6.30;;;2.28;;
48203;SDS011;33994;50.998;5.864;2022-07-29T00:23:14;6.28;;;1.60;;
48203;SDS011;33994;50.998;5.864;2022-07-29T00:26:18;9.20;;;1.58;;
48203;SDS011;33994;50.998;5.864;2022-07-29T00:29:23;2.35;;;1.00;;
48203;SDS011;33994;50.998;5.864;2022-07-29T00:32:27;5.00;;;1.70;;
48203;SDS011;33994;50.998;5.864;2022-07-29T00:35:31;7.00;;;1.70;;
48203;SDS011;33994;50.998;5.864;2022-07-29T00:38:48;3.35;;;1.70;;
48203;SDS011;33994;50.998;5.864;2022-07-29T00:41:55;6.53;;;1.45;;
48203;SDS011;33994;50.998;5.864;2022-07-29T00:44:59;3.33;;;1.45;;
48203;SDS011;33994;50.998;5.864;2022-07-29T00:48:04;5.80;;;1.40;;
48203;SDS011;33994;50.998;5.864;2022-07-29T00:51:11;11.80;;;1.90;;
48203;SDS011;33994;50.998;5.864;2022-07-29T00:54:17;8.70;;;2.13;;
48203;SDS011;33994;50.998;5.864;2022-07-29T00:57:21;11.43;;;2.60;;
48203;SDS011;33994;50.998;5.864;2022-07-29T01:00:27;7.68;;;2.45;;
48203;SDS011;33994;50.998;5.864;2022-07-29T01:03:32;7.75;;;2.50;;
48203;SDS011;33994;50.998;5.864;2022-07-29T01:06:37;8.07;;;2.33;;
48203;SDS011;33994;50.998;5.864;2022-07-29T01:09:44;8.98;;;2.10;;
48203;SDS011;33994;50.998;5.864;2022-07-29T01:12:50;14.73;;;3.08;;
48203;SDS011;33994;50.998;5.864;2022-07-29T01:15:58;6.72;;;2.20;;
48203;SDS011;33994;50.998;5.864;2022-07-29T01:19:13;6.10;;;2.15;;
48203;SDS011;33994;50.998;5.864;2022-07-29T01:32:19;12.30;;;2.15;;
48203;SDS011;33994;50.998;5.864;2022-07-29T01:35:34;4.82;;;2.20;;
48203;SDS011;33994;50.998;5.864;2022-07-29T01:38:44;7.45;;;2.60;;
48203;SDS011;33994;50.998;5.864;2022-07-29T01:42:02;6.57;;;2.08;;
48203;SDS011;33994;50.998;5.864;2022-07-29T01:48:44;6.90;;;2.38;;
48203;SDS011;33994;50.998;5.864;2022-07-29T01:51:58;5.93;;;1.98;;
48203;SDS011;33994;50.998;5.864;2022-07-29T01:55:09;4.28;;;2.00;;
48203;SDS011;33994;50.998;5.864;2022-07-29T01:58:17;8.02;;;2.20;;
48203;SDS011;33994;50.998;5.864;2022-07-29T02:01:24;8.32;;;2.20;;
48203;SDS011;33994;50.998;5.864;2022-07-29T02:04:31;5.85;;;2.00;;
48203;SDS011;33994;50.998;5.864;2022-07-29T02:07:40;6.28;;;2.25;;
48203;SDS011;33994;50.998;5.864;2022-07-29T02:10:47;10.43;;;3.08;;
48203;SDS011;33994;50.998;5.864;2022-07-29T02:13:54;6.22;;;2.47;;
48203;SDS011;33994;50.998;5.864;2022-07-29T02:17:01;4.60;;;2.25;;
48203;SDS011;33994;50.998;5.864;2022-07-29T02:20:07;5.55;;;1.90;;
48203;SDS011;33994;50.998;5.864;2022-07-29T02:23:14;10.02;;;2.17;;
48203;SDS011;33994;50.998;5.864;2022-07-29T02:26:23;7.90;;;2.20;;
48203;SDS011;33994;50.998;5.864;2022-07-29T02:29:29;6.93;;;2.30;;
48203;SDS011;33994;50.998;5.864;2022-07-29T02:32:36;5.25;;;2.17;;
48203;SDS011;33994;50.998;5.864;2022-07-29T02:35:41;5.18;;;1.83;;
48203;SDS011;33994;50.998;5.864;2022-07-29T02:38:47;6.88;;;2.40;;
48203;SDS011;33994;50.998;5.864;2022-07-29T02:41:59;7.75;;;2.13;;
48203;SDS011;33994;50.998;5.864;2022-07-29T02:45:07;5.35;;;1.88;;
48203;SDS011;33994;50.998;5.864;2022-07-29T02:48:13;5.88;;;2.50;;
48203;SDS011;33994;50.998;5.864;2022-07-29T02:51:23;6.80;;;2.22;;
48203;SDS011;33994;50.998;5.864;2022-07-29T02:57:51;5.40;;;2.30;;
48203;SDS011;33994;50.998;5.864;2022-07-29T03:01:16;10.75;;;3.65;;
48203;SDS011;33994;50.998;5.864;2022-07-29T03:04:24;8.32;;;2.50;;
48203;SDS011;33994;50.998;5.864;2022-07-29T03:07:32;5.47;;;2.42;;
48203;SDS011;33994;50.998;5.864;2022-07-29T03:10:39;10.85;;;2.70;;
48203;SDS011;33994;50.998;5.864;2022-07-29T03:16:51;7.43;;;2.25;;
48203;SDS011;33994;50.998;5.864;2022-07-29T03:19:55;5.72;;;3.13;;
48203;SDS011;33994;50.998;5.864;2022-07-29T03:23:00;7.97;;;2.15;;
48203;SDS011;33994;50.998;5.864;2022-07-29T03:26:05;6.72;;;2.65;;
48203;SDS011;33994;50.998;5.864;2022-07-29T03:29:09;6.70;;;2.92;;
48203;SDS011;33994;50.998;5.864;2022-07-29T03:32:14;5.30;;;3.05;;
48203;SDS011;33994;50.998;5.864;2022-07-29T03:35:19;8.27;;;2.63;;
48203;SDS011;33994;50.998;5.864;2022-07-29T03:38:24;14.35;;;2.78;;
48203;SDS011;33994;50.998;5.864;2022-07-29T03:41:30;10.48;;;2.40;;
48203;SDS011;33994;50.998;5.864;2022-07-29T03:44:36;8.07;;;2.80;;
48203;SDS011;33994;50.998;5.864;2022-07-29T03:47:42;6.45;;;2.80;;
48203;SDS011;33994;50.998;5.864;2022-07-29T03:50:51;8.38;;;3.53;;
48203;SDS011;33994;50.998;5.864;2022-07-29T03:53:55;8.63;;;2.83;;
48203;SDS011;33994;50.998;5.864;2022-07-29T03:57:01;7.30;;;2.72;;
48203;SDS011;33994;50.998;5.864;2022-07-29T04:00:07;6.70;;;2.80;;
48203;SDS011;33994;50.998;5.864;2022-07-29T04:03:12;6.78;;;2.88;;
48203;SDS011;33994;50.998;5.864;2022-07-29T04:06:17;10.00;;;3.00;;
48203;SDS011;33994;50.998;5.864;2022-07-29T04:09:21;8.73;;;3.40;;
48203;SDS011;33994;50.998;5.864;2022-07-29T04:12:25;5.30;;;2.80;;
48203;SDS011;33994;50.998;5.864;2022-07-29T04:15:30;6.38;;;2.95;;
48203;SDS011;33994;50.998;5.864;2022-07-29T04:18:35;8.00;;;3.25;;
48203;SDS011;33994;50.998;5.864;2022-07-29T04:21:39;7.05;;;3.20;;
48203;SDS011;33994;50.998;5.864;2022-07-29T04:24:44;5.93;;;3.30;;
48203;SDS011;33994;50.998;5.864;2022-07-29T04:27:49;9.85;;;3.35;;
48203;SDS011;33994;50.998;5.864;2022-07-29T04:31:06;6.80;;;3.10;;
48203;SDS011;33994;50.998;5.864;2022-07-29T04:34:10;9.23;;;3.53;;
48203;SDS011;33994;50.998;5.864;2022-07-29T04:37:15;11.63;;;3.95;;
48203;SDS011;33994;50.998;5.864;2022-07-29T04:40:20;4.95;;;3.22;;
48203;SDS011;33994;50.998;5.864;2022-07-29T04:43:24;7.15;;;3.05;;
48203;SDS011;33994;50.998;5.864;2022-07-29T04:46:29;6.93;;;3.10;;
48203;SDS011;33994;50.998;5.864;2022-07-29T04:49:33;5.72;;;3.15;;
48203;SDS011;33994;50.998;5.864;2022-07-29T04:52:37;8.68;;;3.30;;
48203;SDS011;33994;50.998;5.864;2022-07-29T04:55:42;8.43;;;4.60;;
48203;SDS011;33994;50.998;5.864;2022-07-29T04:58:46;11.63;;;3.75;;
48203;SDS011;33994;50.998;5.864;2022-07-29T05:01:51;8.75;;;3.85;;
48203;SDS011;33994;50.998;5.864;2022-07-29T05:04:55;6.68;;;3.63;;
48203;SDS011;33994;50.998;5.864;2022-07-29T05:07:59;7.57;;;3.63;;
48203;SDS011;33994;50.998;5.864;2022-07-29T05:11:04;7.60;;;3.35;;
48203;SDS011;33994;50.998;5.864;2022-07-29T05:14:08;14.35;;;4.30;;
48203;SDS011;33994;50.998;5.864;2022-07-29T05:17:13;7.07;;;3.50;;
48203;SDS011;33994;50.998;5.864;2022-07-29T05:20:17;10.52;;;3.28;;
48203;SDS011;33994;50.998;5.864;2022-07-29T05:23:28;6.35;;;2.97;;
48203;SDS011;33994;50.998;5.864;2022-07-29T05:26:33;8.02;;;3.45;;
48203;SDS011;33994;50.998;5.864;2022-07-29T05:29:38;8.85;;;3.22;;
48203;SDS011;33994;50.998;5.864;2022-07-29T05:32:42;6.95;;;3.47;;
48203;SDS011;33994;50.998;5.864;2022-07-29T05:35:46;8.75;;;3.50;;
48203;SDS011;33994;50.998;5.864;2022-07-29T05:38:51;13.23;;;3.95;;
48203;SDS011;33994;50.998;5.864;2022-07-29T05:41:55;6.25;;;2.95;;
48203;SDS011;33994;50.998;5.864;2022-07-29T05:45:00;7.95;;;3.10;;
48203;SDS011;33994;50.998;5.864;2022-07-29T05:48:05;6.07;;;3.30;;
48203;SDS011;33994;50.998;5.864;2022-07-29T05:51:09;7.80;;;3.03;;
48203;SDS011;33994;50.998;5.864;2022-07-29T05:54:14;9.57;;;3.38;;
48203;SDS011;33994;50.998;5.864;2022-07-29T05:57:20;6.32;;;3.05;;
48203;SDS011;33994;50.998;5.864;2022-07-29T06:00:26;11.27;;;3.17;;
48203;SDS011;33994;50.998;5.864;2022-07-29T06:03:31;8.25;;;2.97;;
48203;SDS011;33994;50.998;5.864;2022-07-29T06:06:35;5.80;;;3.20;;
48203;SDS011;33994;50.998;5.864;2022-07-29T06:09:39;6.35;;;3.22;;
48203;SDS011;33994;50.998;5.864;2022-07-29T06:12:44;15.45;;;3.70;;
48203;SDS011;33994;50.998;5.864;2022-07-29T06:15:48;15.70;;;4.38;;
48203;SDS011;33994;50.998;5.864;2022-07-29T06:18:53;9.70;;;3.50;;
48203;SDS011;33994;50.998;5.864;2022-07-29T06:21:57;6.05;;;3.28;;
48203;SDS011;33994;50.998;5.864;2022-07-29T06:25:02;9.85;;;3.35;;
48203;SDS011;33994;50.998;5.864;2022-07-29T06:28:09;9.82;;;3.30;;
48203;SDS011;33994;50.998;5.864;2022-07-29T06:31:14;8.80;;;3.22;;
48203;SDS011;33994;50.998;5.864;2022-07-29T06:34:20;7.82;;;3.42;;
48203;SDS011;33994;50.998;5.864;2022-07-29T06:37:24;7.82;;;3.30;;
48203;SDS011;33994;50.998;5.864;2022-07-29T06:40:29;9.88;;;2.83;;
48203;SDS011;33994;50.998;5.864;2022-07-29T06:43:51;9.50;;;3.70;;
48203;SDS011;33994;50.998;5.864;2022-07-29T06:46:55;9.38;;;3.10;;
48203;SDS011;33994;50.998;5.864;2022-07-29T06:50:00;5.70;;;2.97;;
48203;SDS011;33994;50.998;5.864;2022-07-29T06:53:04;8.70;;;3.35;;
48203;SDS011;33994;50.998;5.864;2022-07-29T06:56:09;7.65;;;3.25;;
48203;SDS011;33994;50.998;5.864;2022-07-29T06:59:15;9.05;;;2.47;;
48203;SDS011;33994;50.998;5.864;2022-07-29T07:02:20;12.43;;;4.30;;
48203;SDS011;33994;50.998;5.864;2022-07-29T07:05:24;7.07;;;3.65;;
48203;SDS011;33994;50.998;5.864;2022-07-29T07:08:29;5.95;;;3.20;;
48203;SDS011;33994;50.998;5.864;2022-07-29T07:11:33;11.30;;;3.83;;
48203;SDS011;33994;50.998;5.864;2022-07-29T07:14:37;6.68;;;3.03;;
48203;SDS011;33994;50.998;5.864;2022-07-29T07:17:42;5.35;;;2.88;;
48203;SDS011;33994;50.998;5.864;2022-07-29T07:20:47;4.85;;;2.65;;
48203;SDS011;33994;50.998;5.864;2022-07-29T07:23:51;5.57;;;3.13;;
48203;SDS011;33994;50.998;5.864;2022-07-29T07:26:55;8.05;;;3.20;;
48203;SDS011;33994;50.998;5.864;2022-07-29T07:30:00;7.97;;;3.65;;
48203;SDS011;33994;50.998;5.864;2022-07-29T07:33:05;11.32;;;3.53;;
48203;SDS011;33994;50.998;5.864;2022-07-29T07:36:09;13.38;;;4.43;;
48203;SDS011;33994;50.998;5.864;2022-07-29T07:39:14;8.95;;;3.80;;
48203;SDS011;33994;50.998;5.864;2022-07-29T07:42:18;7.30;;;4.00;;
48203;SDS011;33994;50.998;5.864;2022-07-29T07:45:23;9.38;;;3.58;;
48203;SDS011;33994;50.998;5.864;2022-07-29T07:48:28;8.98;;;4.15;;
48203;SDS011;33994;50.998;5.864;2022-07-29T07:51:34;8.07;;;3.85;;
48203;SDS011;33994;50.998;5.864;2022-07-29T07:54:38;6.47;;;3.28;;
48203;SDS011;33994;50.998;5.864;2022-07-29T07:57:43;7.53;;;3.38;;
48203;SDS011;33994;50.998;5.864;2022-07-29T08:00:49;6.95;;;3.45;;
48203;SDS011;33994;50.998;5.864;2022-07-29T08:03:54;9.65;;;3.97;;
48203;SDS011;33994;50.998;5.864;2022-07-29T08:06:59;10.75;;;3.55;;
48203;SDS011;33994;50.998;5.864;2022-07-29T08:10:03;6.00;;;3.47;;
48203;SDS011;33994;50.998;5.864;2022-07-29T08:13:09;5.65;;;3.15;;
48203;SDS011;33994;50.998;5.864;2022-07-29T08:16:14;7.85;;;4.13;;
48203;SDS011;33994;50.998;5.864;2022-07-29T08:19:19;12.30;;;4.25;;
48203;SDS011;33994;50.998;5.864;2022-07-29T08:22:23;11.30;;;4.03;;
48203;SDS011;33994;50.998;5.864;2022-07-29T08:25:28;7.43;;;4.00;;
48203;SDS011;33994;50.998;5.864;2022-07-29T08:28:32;6.82;;;3.80;;
48203;SDS011;33994;50.998;5.864;2022-07-29T08:31:37;6.85;;;4.25;;
48203;SDS011;33994;50.998;5.864;2022-07-29T08:34:41;8.45;;;4.07;;
48203;SDS011;33994;50.998;5.864;2022-07-29T08:37:48;9.32;;;4.07;;
48203;SDS011;33994;50.998;5.864;2022-07-29T08:40:53;8.80;;;4.40;;
48203;SDS011;33994;50.998;5.864;2022-07-29T08:43:58;11.63;;;4.03;;
48203;SDS011;33994;50.998;5.864;2022-07-29T08:47:03;9.98;;;4.32;;
48203;SDS011;33994;50.998;5.864;2022-07-29T08:50:08;9.57;;;4.38;;
48203;SDS011;33994;50.998;5.864;2022-07-29T08:53:14;9.40;;;4.47;;
48203;SDS011;33994;50.998;5.864;2022-07-29T08:56:20;10.40;;;4.07;;
48203;SDS011;33994;50.998;5.864;2022-07-29T08:59:25;8.80;;;4.30;;
48203;SDS011;33994;50.998;5.864;2022-07-29T09:02:33;8.10;;;4.18;;
48203;SDS011;33994;50.998;5.864;2022-07-29T09:05:46;8.02;;;4.05;;
48203;SDS011;33994;50.998;5.864;2022-07-29T09:08:51;7.25;;;4.40;;
48203;SDS011;33994;50.998;5.864;2022-07-29T09:11:55;9.27;;;4.07;;
48203;SDS011;33994;50.998;5.864;2022-07-29T09:15:00;9.73;;;4.07;;
48203;SDS011;33994;50.998;5.864;2022-07-29T09:18:04;10.52;;;4.70;;
48203;SDS011;33994;50.998;5.864;2022-07-29T09:21:09;13.65;;;4.53;;
48203;SDS011;33994;50.998;5.864;2022-07-29T09:27:37;12.20;;;4.50;;
48203;SDS011;33994;50.998;5.864;2022-07-29T09:30:51;8.57;;;4.20;;
48203;SDS011;33994;50.998;5.864;2022-07-29T09:33:57;8.75;;;4.30;;
48203;SDS011;33994;50.998;5.864;2022-07-29T09:37:03;9.20;;;4.35;;
48203;SDS011;33994;50.998;5.864;2022-07-29T09:40:14;8.85;;;4.32;;
48203;SDS011;33994;50.998;5.864;2022-07-29T09:43:24;8.50;;;4.18;;
48203;SDS011;33994;50.998;5.864;2022-07-29T09:46:28;6.15;;;3.90;;
48203;SDS011;33994;50.998;5.864;2022-07-29T09:49:33;8.32;;;4.10;;
48203;SDS011;33994;50.998;5.864;2022-07-29T09:52:46;9.45;;;3.97;;
48203;SDS011;33994;50.998;5.864;2022-07-29T09:55:52;8.32;;;4.28;;
48203;SDS011;33994;50.998;5.864;2022-07-29T09:59:06;5.93;;;3.40;;
48203;SDS011;33994;50.998;5.864;2022-07-29T10:02:12;6.38;;;3.60;;
48203;SDS011;33994;50.998;5.864;2022-07-29T10:05:20;6.35;;;3.38;;
48203;SDS011;33994;50.998;5.864;2022-07-29T10:08:27;6.10;;;3.40;;
48203;SDS011;33994;50.998;5.864;2022-07-29T10:11:31;8.23;;;4.38;;
48203;SDS011;33994;50.998;5.864;2022-07-29T10:14:36;10.50;;;3.78;;
48203;SDS011;33994;50.998;5.864;2022-07-29T10:17:41;9.48;;;4.28;;
48203;SDS011;33994;50.998;5.864;2022-07-29T10:20:47;6.40;;;3.83;;
48203;SDS011;33994;50.998;5.864;2022-07-29T10:23:52;8.40;;;4.63;;
48203;SDS011;33994;50.998;5.864;2022-07-29T10:26:57;10.85;;;5.00;;
48203;SDS011;33994;50.998;5.864;2022-07-29T10:30:06;10.85;;;5.15;;
48203;SDS011;33994;50.998;5.864;2022-07-29T10:40:00;8.05;;;4.38;;
48203;SDS011;33994;50.998;5.864;2022-07-29T10:43:37;9.85;;;4.60;;
48203;SDS011;33994;50.998;5.864;2022-07-29T10:46:46;8.02;;;4.25;;
48203;SDS011;33994;50.998;5.864;2022-07-29T10:49:58;10.32;;;4.85;;
48203;SDS011;33994;50.998;5.864;2022-07-29T10:53:03;5.85;;;3.90;;
48203;SDS011;33994;50.998;5.864;2022-07-29T10:56:18;14.50;;;5.65;;
48203;SDS011;33994;50.998;5.864;2022-07-29T10:59:28;12.95;;;4.80;;
48203;SDS011;33994;50.998;5.864;2022-07-29T11:05:51;9.60;;;5.05;;
48203;SDS011;33994;50.998;5.864;2022-07-29T11:09:16;8.70;;;5.22;;
48203;SDS011;33994;50.998;5.864;2022-07-29T11:15:55;10.55;;;5.65;;
48203;SDS011;33994;50.998;5.864;2022-07-29T11:22:33;12.63;;;6.18;;
48203;SDS011;33994;50.998;5.864;2022-07-29T11:25:39;12.45;;;5.38;;
48203;SDS011;33994;50.998;5.864;2022-07-29T11:32:07;20.83;;;8.23;;
48203;SDS011;33994;50.998;5.864;2022-07-29T11:35:22;9.48;;;5.63;;
48203;SDS011;33994;50.998;5.864;2022-07-29T11:38:27;9.27;;;5.25;;
48203;SDS011;33994;50.998;5.864;2022-07-29T11:41:32;16.45;;;6.40;;
48203;SDS011;33994;50.998;5.864;2022-07-29T11:48:03;9.85;;;6.07;;
48203;SDS011;33994;50.998;5.864;2022-07-29T11:51:09;9.98;;;5.80;;
48203;SDS011;33994;50.998;5.864;2022-07-29T11:54:15;11.57;;;5.68;;
48203;SDS011;33994;50.998;5.864;2022-07-29T11:57:28;9.15;;;5.00;;
48203;SDS011;33994;50.998;5.864;2022-07-29T12:00:35;14.25;;;6.18;;
48203;SDS011;33994;50.998;5.864;2022-07-29T12:03:41;6.63;;;5.00;;
48203;SDS011;33994;50.998;5.864;2022-07-29T12:06:52;10.00;;;5.22;;
48203;SDS011;33994;50.998;5.864;2022-07-29T12:09:58;9.75;;;5.13;;
48203;SDS011;33994;50.998;5.864;2022-07-29T12:13:03;8.35;;;5.80;;
48203;SDS011;33994;50.998;5.864;2022-07-29T12:16:07;9.85;;;4.45;;
48203;SDS011;33994;50.998;5.864;2022-07-29T12:19:11;9.10;;;4.55;;
48203;SDS011;33994;50.998;5.864;2022-07-29T12:22:24;9.15;;;4.95;;
48203;SDS011;33994;50.998;5.864;2022-07-29T12:25:33;9.02;;;4.82;;
48203;SDS011;33994;50.998;5.864;2022-07-29T12:28:38;5.80;;;4.65;;
48203;SDS011;33994;50.998;5.864;2022-07-29T12:31:43;9.43;;;4.88;;
48203;SDS011;33994;50.998;5.864;2022-07-29T12:34:49;11.60;;;5.45;;
48203;SDS011;33994;50.998;5.864;2022-07-29T12:37:54;9.18;;;5.30;;
48203;SDS011;33994;50.998;5.864;2022-07-29T12:40:58;7.32;;;5.60;;
48203;SDS011;33994;50.998;5.864;2022-07-29T12:44:03;12.00;;;4.82;;
48203;SDS011;33994;50.998;5.864;2022-07-29T12:47:07;8.55;;;4.68;;
48203;SDS011;33994;50.998;5.864;2022-07-29T12:50:14;11.15;;;4.63;;
48203;SDS011;33994;50.998;5.864;2022-07-29T12:53:20;8.18;;;4.57;;
48203;SDS011;33994;50.998;5.864;2022-07-29T12:56:25;4.15;;;3.58;;
48203;SDS011;33994;50.998;5.864;2022-07-29T12:59:29;6.53;;;4.20;;
48203;SDS011;33994;50.998;5.864;2022-07-29T13:02:34;8.85;;;5.00;;
48203;SDS011;33994;50.998;5.864;2022-07-29T13:05:40;4.53;;;2.78;;
48203;SDS011;33994;50.998;5.864;2022-07-29T13:09:04;8.63;;;2.58;;
48203;SDS011;33994;50.998;5.864;2022-07-29T13:12:22;4.88;;;3.15;;
48203;SDS011;33994;50.998;5.864;2022-07-29T13:15:26;6.03;;;2.33;;
48203;SDS011;33994;50.998;5.864;2022-07-29T13:18:31;4.55;;;2.75;;
48203;SDS011;33994;50.998;5.864;2022-07-29T13:21:39;7.00;;;2.60;;
48203;SDS011;33994;50.998;5.864;2022-07-29T13:25:05;6.35;;;2.90;;
48203;SDS011;33994;50.998;5.864;2022-07-29T13:28:09;3.60;;;2.00;;
48203;SDS011;33994;50.998;5.864;2022-07-29T13:31:14;4.03;;;1.98;;
48203;SDS011;33994;50.998;5.864;2022-07-29T13:34:19;5.88;;;1.60;;
48203;SDS011;33994;50.998;5.864;2022-07-29T13:37:25;4.60;;;2.05;;
48203;SDS011;33994;50.998;5.864;2022-07-29T13:40:32;7.00;;;2.17;;
48203;SDS011;33994;50.998;5.864;2022-07-29T13:43:38;7.38;;;2.92;;
48203;SDS011;33994;50.998;5.864;2022-07-29T13:46:42;6.55;;;2.35;;
48203;SDS011;33994;50.998;5.864;2022-07-29T13:49:48;3.05;;;2.03;;
48203;SDS011;33994;50.998;5.864;2022-07-29T13:52:52;3.03;;;2.10;;
48203;SDS011;33994;50.998;5.864;2022-07-29T13:55:57;4.47;;;2.28;;
48203;SDS011;33994;50.998;5.864;2022-07-29T13:59:01;6.68;;;2.53;;
48203;SDS011;33994;50.998;5.864;2022-07-29T14:02:06;4.78;;;2.00;;
48203;SDS011;33994;50.998;5.864;2022-07-29T14:05:10;3.67;;;2.58;;
48203;SDS011;33994;50.998;5.864;2022-07-29T14:08:15;2.65;;;2.20;;
48203;SDS011;33994;50.998;5.864;2022-07-29T14:11:19;5.95;;;2.70;;
48203;SDS011;33994;50.998;5.864;2022-07-29T14:14:23;5.40;;;2.83;;
48203;SDS011;33994;50.998;5.864;2022-07-29T14:17:28;4.85;;;2.70;;
48203;SDS011;33994;50.998;5.864;2022-07-29T14:20:34;4.33;;;2.70;;
48203;SDS011;33994;50.998;5.864;2022-07-29T14:23:39;4.28;;;2.92;;
48203;SDS011;33994;50.998;5.864;2022-07-29T14:26:44;9.48;;;2.78;;
48203;SDS011;33994;50.998;5.864;2022-07-29T14:29:48;7.00;;;2.60;;
48203;SDS011;33994;50.998;5.864;2022-07-29T14:32:53;3.72;;;2.63;;
48203;SDS011;33994;50.998;5.864;2022-07-29T14:35:57;5.80;;;3.40;;
48203;SDS011;33994;50.998;5.864;2022-07-29T14:39:02;7.15;;;3.42;;
48203;SDS011;33994;50.998;5.864;2022-07-29T14:42:06;5.65;;;3.33;;
48203;SDS011;33994;50.998;5.864;2022-07-29T14:45:10;6.47;;;3.00;;
48203;SDS011;33994;50.998;5.864;2022-07-29T14:48:15;6.15;;;3.75;;
48203;SDS011;33994;50.998;5.864;2022-07-29T14:51:19;3.90;;;2.63;;
48203;SDS011;33994;50.998;5.864;2022-07-29T14:54:24;7.65;;;3.05;;
48203;SDS011;33994;50.998;5.864;2022-07-29T14:57:28;6.20;;;2.85;;
48203;SDS011;33994;50.998;5.864;2022-07-29T15:00:35;4.30;;;2.60;;
48203;SDS011;33994;50.998;5.864;2022-07-29T15:03:40;5.75;;;2.55;;
48203;SDS011;33994;50.998;5.864;2022-07-29T15:06:44;8.85;;;3.47;;
48203;SDS011;33994;50.998;5.864;2022-07-29T15:09:48;4.57;;;2.35;;
48203;SDS011;33994;50.998;5.864;2022-07-29T15:12:53;6.88;;;3.10;;
48203;SDS011;33994;50.998;5.864;2022-07-29T15:15:58;4.05;;;3.30;;
48203;SDS011;33994;50.998;5.864;2022-07-29T15:19:03;5.55;;;2.85;;
48203;SDS011;33994;50.998;5.864;2022-07-29T15:22:10;5.43;;;3.10;;
48203;SDS011;33994;50.998;5.864;2022-07-29T15:25:15;7.43;;;3.63;;
48203;SDS011;33994;50.998;5.864;2022-07-29T15:28:23;4.85;;;2.33;;
48203;SDS011;33994;50.998;5.864;2022-07-29T15:31:27;5.28;;;3.38;;
48203;SDS011;33994;50.998;5.864;2022-07-29T15:34:32;5.15;;;2.67;;
48203;SDS011;33994;50.998;5.864;2022-07-29T15:37:40;6.85;;;2.85;;
48203;SDS011;33994;50.998;5.864;2022-07-29T15:40:44;3.97;;;2.70;;
48203;SDS011;33994;50.998;5.864;2022-07-29T15:43:49;4.75;;;2.70;;
48203;SDS011;33994;50.998;5.864;2022-07-29T15:46:53;5.30;;;2.70;;
48203;SDS011;33994;50.998;5.864;2022-07-29T15:50:07;4.28;;;2.70;;
48203;SDS011;33994;50.998;5.864;2022-07-29T15:53:17;6.38;;;2.65;;
48203;SDS011;33994;50.998;5.864;2022-07-29T15:56:22;6.55;;;2.72;;
48203;SDS011;33994;50.998;5.864;2022-07-29T15:59:26;7.35;;;2.97;;
48203;SDS011;33994;50.998;5.864;2022-07-29T16:02:31;4.43;;;2.63;;
48203;SDS011;33994;50.998;5.864;2022-07-29T16:05:35;9.90;;;3.53;;
48203;SDS011;33994;50.998;5.864;2022-07-29T16:08:40;10.05;;;2.88;;
48203;SDS011;33994;50.998;5.864;2022-07-29T16:11:44;5.45;;;2.35;;
48203;SDS011;33994;50.998;5.864;2022-07-29T16:14:52;2.60;;;2.40;;
48203;SDS011;33994;50.998;5.864;2022-07-29T16:17:57;9.10;;;2.83;;
48203;SDS011;33994;50.998;5.864;2022-07-29T16:21:01;5.93;;;2.70;;
48203;SDS011;33994;50.998;5.864;2022-07-29T16:24:05;6.30;;;2.28;;
48203;SDS011;33994;50.998;5.864;2022-07-29T16:27:13;4.78;;;2.63;;
48203;SDS011;33994;50.998;5.864;2022-07-29T16:30:17;7.35;;;2.38;;
48203;SDS011;33994;50.998;5.864;2022-07-29T16:33:22;3.92;;;2.10;;
48203;SDS011;33994;50.998;5.864;2022-07-29T16:36:26;3.97;;;2.35;;
48203;SDS011;33994;50.998;5.864;2022-07-29T16:39:31;5.28;;;2.20;;
48203;SDS011;33994;50.998;5.864;2022-07-29T16:42:35;5.88;;;2.20;;
48203;SDS011;33994;50.998;5.864;2022-07-29T16:45:40;5.88;;;2.08;;
48203;SDS011;33994;50.998;5.864;2022-07-29T16:48:44;4.45;;;2.15;;
48203;SDS011;33994;50.998;5.864;2022-07-29T16:51:52;4.28;;;1.95;;
48203;SDS011;33994;50.998;5.864;2022-07-29T16:54:56;6.03;;;2.20;;
48203;SDS011;33994;50.998;5.864;2022-07-29T16:58:00;4.35;;;2.13;;
48203;SDS011;33994;50.998;5.864;2022-07-29T17:01:05;5.88;;;1.75;;
48203;SDS011;33994;50.998;5.864;2022-07-29T17:04:10;4.38;;;1.83;;
48203;SDS011;33994;50.998;5.864;2022-07-29T17:07:17;5.47;;;1.85;;
48203;SDS011;33994;50.998;5.864;2022-07-29T17:10:21;6.93;;;1.85;;
48203;SDS011;33994;50.998;5.864;2022-07-29T17:13:26;3.45;;;1.88;;
48203;SDS011;33994;50.998;5.864;2022-07-29T17:16:30;5.57;;;2.08;;
48203;SDS011;33994;50.998;5.864;2022-07-29T17:19:35;9.57;;;2.35;;
48203;SDS011;33994;50.998;5.864;2022-07-29T17:22:39;6.65;;;2.20;;
48203;SDS011;33994;50.998;5.864;2022-07-29T17:25:45;7.20;;;1.92;;
48203;SDS011;33994;50.998;5.864;2022-07-29T17:28:49;5.15;;;1.70;;
48203;SDS011;33994;50.998;5.864;2022-07-29T17:31:53;7.05;;;1.88;;
48203;SDS011;33994;50.998;5.864;2022-07-29T17:34:59;8.27;;;2.13;;
48203;SDS011;33994;50.998;5.864;2022-07-29T17:38:03;7.63;;;1.80;;
48203;SDS011;33994;50.998;5.864;2022-07-29T17:41:08;7.53;;;1.75;;
48203;SDS011;33994;50.998;5.864;2022-07-29T17:44:12;4.78;;;1.90;;
48203;SDS011;33994;50.998;5.864;2022-07-29T17:47:18;3.95;;;1.95;;
48203;SDS011;33994;50.998;5.864;2022-07-29T17:50:23;5.05;;;1.80;;
48203;SDS011;33994;50.998;5.864;2022-07-29T17:53:27;5.20;;;2.22;;
48203;SDS011;33994;50.998;5.864;2022-07-29T17:56:33;4.38;;;1.90;;
48203;SDS011;33994;50.998;5.864;2022-07-29T17:59:37;4.63;;;1.77;;
48203;SDS011;33994;50.998;5.864;2022-07-29T18:02:42;3.70;;;1.83;;
48203;SDS011;33994;50.998;5.864;2022-07-29T18:05:46;4.15;;;1.95;;
48203;SDS011;33994;50.998;5.864;2022-07-29T18:08:51;3.20;;;1.70;;
48203;SDS011;33994;50.998;5.864;2022-07-29T18:11:57;8.52;;;1.90;;
48203;SDS011;33994;50.998;5.864;2022-07-29T18:15:04;7.38;;;2.03;;
48203;SDS011;33994;50.998;5.864;2022-07-29T18:18:09;5.45;;;1.90;;
48203;SDS011;33994;50.998;5.864;2022-07-29T18:21:14;6.55;;;2.15;;
48203;SDS011;33994;50.998;5.864;2022-07-29T18:24:22;6.28;;;2.03;;
48203;SDS011;33994;50.998;5.864;2022-07-29T18:27:30;3.17;;;1.80;;
48203;SDS011;33994;50.998;5.864;2022-07-29T18:30:35;5.63;;;1.85;;
48203;SDS011;33994;50.998;5.864;2022-07-29T18:33:40;5.93;;;2.10;;
48203;SDS011;33994;50.998;5.864;2022-07-29T18:36:44;5.88;;;1.95;;
48203;SDS011;33994;50.998;5.864;2022-07-29T18:39:49;4.15;;;2.10;;
48203;SDS011;33994;50.998;5.864;2022-07-29T18:42:53;6.45;;;2.20;;
48203;SDS011;33994;50.998;5.864;2022-07-29T18:46:00;8.35;;;2.05;;
48203;SDS011;33994;50.998;5.864;2022-07-29T18:49:05;4.93;;;2.00;;
48203;SDS011;33994;50.998;5.864;2022-07-29T18:52:11;5.78;;;2.13;;
48203;SDS011;33994;50.998;5.864;2022-07-29T18:55:15;6.03;;;2.10;;
48203;SDS011;33994;50.998;5.864;2022-07-29T18:58:25;4.90;;;1.75;;
48203;SDS011;33994;50.998;5.864;2022-07-29T19:01:31;3.58;;;2.25;;
48203;SDS011;33994;50.998;5.864;2022-07-29T19:04:35;8.07;;;2.35;;
48203;SDS011;33994;50.998;5.864;2022-07-29T19:07:43;8.73;;;2.30;;
48203;SDS011;33994;50.998;5.864;2022-07-29T19:10:48;5.82;;;2.17;;
48203;SDS011;33994;50.998;5.864;2022-07-29T19:13:53;5.78;;;2.30;;
48203;SDS011;33994;50.998;5.864;2022-07-29T19:17:03;9.00;;;2.22;;
48203;SDS011;33994;50.998;5.864;2022-07-29T19:20:08;5.32;;;2.20;;
48203;SDS011;33994;50.998;5.864;2022-07-29T19:23:13;5.22;;;2.30;;
48203;SDS011;33994;50.998;5.864;2022-07-29T19:26:18;5.60;;;2.20;;